createdAt,value
2023-04-02T00:01:42.910Z,91.99
2023-04-02T00:04:09.241Z,91.52
2023-04-02T00:06:35.516Z,93.00
2023-04-02T00:09:01.732Z,93.91
2023-04-02T00:11:27.963Z,94.54
2023-04-02T00:13:54.203Z,93.44
2023-04-02T00:16:20.465Z,93.05
2023-04-02T00:18:46.720Z,92.37
2023-04-02T00:21:12.944Z,91.72
2023-04-02T00:23:39.190Z,91.20
2023-04-02T00:26:05.449Z,90.94
2023-04-02T00:28:31.660Z,90.93
2023-04-02T00:30:57.880Z,90.12
2023-04-02T00:33:24.101Z,89.95
2023-04-02T00:35:50.402Z,89.50
2023-04-02T00:38:16.660Z,88.55
2023-04-02T00:40:42.942Z,88.01
2023-04-02T00:43:09.163Z,86.82
2023-04-02T00:45:35.773Z,86.77
2023-04-02T00:48:02.363Z,87.33
2023-04-02T00:50:28.607Z,87.07
2023-04-02T00:52:54.852Z,87.00
2023-04-02T00:55:21.112Z,87.04
2023-04-02T00:57:47.436Z,87.01
2023-04-02T01:00:13.739Z,86.38
2023-04-02T01:02:40.048Z,86.45
2023-04-02T01:05:06.350Z,84.98
2023-04-02T01:07:32.840Z,84.60
2023-04-02T01:09:59.081Z,83.99
2023-04-02T01:12:25.324Z,83.64
2023-04-02T01:14:51.595Z,83.21
2023-04-02T01:17:17.856Z,83.04
2023-04-02T01:19:44.094Z,82.98
2023-04-02T01:22:10.364Z,82.93
2023-04-02T01:24:36.620Z,83.17
2023-04-02T01:27:03.068Z,83.38
2023-04-02T01:29:29.317Z,83.42
2023-04-02T01:31:55.548Z,83.42
2023-04-02T01:34:22.233Z,85.75
2023-04-02T01:36:49.191Z,87.00
2023-04-02T01:39:15.442Z,91.22
2023-04-02T01:41:41.664Z,92.15
2023-04-02T01:44:07.902Z,95.26
2023-04-02T01:46:34.176Z,98.38
2023-04-02T01:49:00.462Z,100.00
2023-04-02T01:51:26.755Z,100.00
2023-04-02T01:53:52.984Z,100.00
2023-04-02T01:56:19.262Z,100.00
2023-04-02T01:58:45.481Z,100.00
2023-04-02T02:01:11.777Z,99.51
2023-04-02T02:03:38.078Z,98.27
2023-04-02T02:06:04.377Z,97.22
2023-04-02T02:08:30.636Z,96.30
2023-04-02T02:10:56.892Z,95.58
2023-04-02T02:13:23.119Z,96.30
2023-04-02T02:15:49.394Z,97.42
2023-04-02T02:18:15.632Z,100.00
2023-04-02T02:20:41.888Z,100.00
2023-04-02T02:23:08.114Z,100.00
2023-04-02T02:25:34.533Z,100.00
2023-04-02T02:28:00.918Z,100.00
2023-04-02T02:30:27.146Z,100.00
2023-04-02T02:32:53.381Z,100.00
2023-04-02T02:35:19.668Z,100.00
2023-04-02T02:37:45.886Z,100.00
2023-04-02T02:40:12.110Z,100.00
2023-04-02T02:42:38.362Z,100.00
2023-04-02T02:45:04.601Z,100.00
2023-04-02T02:47:30.834Z,100.00
2023-04-02T02:49:58.921Z,100.00
2023-04-02T02:52:25.361Z,98.90
2023-04-02T02:54:51.611Z,97.37
2023-04-02T02:57:17.932Z,95.62
2023-04-02T02:59:44.226Z,95.84
2023-04-02T03:02:10.509Z,96.18
2023-04-02T03:04:36.754Z,95.43
2023-04-02T03:07:03.005Z,95.15
2023-04-02T03:09:29.245Z,95.46
2023-04-02T03:11:55.492Z,95.17
2023-04-02T03:14:21.732Z,94.51
2023-04-02T03:16:47.976Z,94.85
2023-04-02T03:19:14.183Z,94.20
2023-04-02T03:21:40.430Z,93.60
2023-04-02T03:24:06.649Z,93.44
2023-04-02T03:26:32.894Z,92.91
2023-04-02T03:28:59.141Z,91.71
2023-04-02T03:31:25.405Z,91.95
2023-04-02T03:33:51.683Z,92.70
2023-04-02T03:36:17.944Z,92.67
2023-04-02T03:38:44.207Z,92.03
2023-04-02T03:41:10.442Z,91.30
2023-04-02T03:43:36.710Z,91.66
2023-04-02T03:46:02.977Z,91.32
2023-04-02T03:48:29.218Z,91.04
2023-04-02T03:50:55.460Z,90.90
2023-04-02T03:53:21.680Z,90.72
2023-04-02T03:55:47.956Z,88.30
2023-04-02T03:58:14.179Z,88.29
2023-04-02T04:00:40.433Z,86.71
2023-04-02T04:03:06.718Z,89.57
2023-04-02T04:05:33.243Z,94.04
2023-04-02T04:07:59.619Z,97.84
2023-04-02T04:10:25.860Z,96.56
2023-04-02T04:12:52.184Z,94.76
2023-04-02T04:15:18.433Z,95.13
2023-04-02T04:17:44.660Z,95.46
2023-04-02T04:20:10.959Z,96.37
2023-04-02T04:22:37.188Z,96.19
2023-04-02T04:25:03.423Z,94.65
2023-04-02T04:27:29.656Z,92.84
2023-04-02T04:29:55.916Z,91.03
2023-04-02T04:32:22.138Z,90.20
2023-04-02T04:34:48.372Z,89.46
2023-04-02T04:37:14.593Z,88.39
2023-04-02T04:39:40.838Z,87.60
2023-04-02T04:42:07.061Z,87.72
2023-04-02T04:44:33.296Z,86.68
2023-04-02T04:46:59.520Z,87.59
2023-04-02T04:49:25.756Z,87.89
2023-04-02T04:51:52.030Z,87.11
2023-04-02T04:54:18.288Z,86.67
2023-04-02T04:56:44.517Z,83.57
2023-04-02T04:59:10.767Z,83.66
2023-04-02T05:01:37.009Z,82.92
2023-04-02T05:04:03.299Z,81.32
2023-04-02T05:06:29.578Z,81.62
2023-04-02T05:08:55.840Z,81.65
2023-04-02T05:11:22.089Z,81.41
2023-04-02T05:13:48.332Z,80.48
2023-04-02T05:16:14.648Z,79.47
2023-04-02T05:18:40.891Z,80.01
2023-04-02T05:21:07.129Z,81.84
2023-04-02T05:23:33.357Z,81.81
2023-04-02T05:25:59.600Z,81.87
2023-04-02T05:28:25.815Z,82.71
2023-04-02T05:30:52.058Z,85.59
2023-04-02T05:33:18.322Z,87.28
2023-04-02T05:35:44.624Z,86.80
2023-04-02T05:38:10.904Z,86.54
2023-04-02T05:40:37.157Z,86.18
2023-04-02T05:43:03.447Z,85.98
2023-04-02T05:45:29.690Z,85.00
2023-04-02T05:47:58.038Z,84.99
2023-04-02T05:50:24.314Z,84.59
2023-04-02T05:52:50.548Z,84.97
2023-04-02T05:55:16.809Z,85.36
2023-04-02T05:57:49.520Z,86.01
2023-04-02T06:00:23.049Z,86.07
2023-04-02T06:02:49.308Z,86.18
2023-04-02T06:05:15.608Z,86.31
2023-04-02T06:07:41.894Z,86.75
2023-04-02T06:10:08.125Z,87.64
2023-04-02T06:12:34.368Z,86.88
2023-04-02T06:15:00.623Z,86.52
2023-04-02T06:17:26.881Z,86.80
2023-04-02T06:19:53.158Z,86.80
2023-04-02T06:22:19.385Z,86.70
2023-04-02T06:24:45.690Z,88.60
2023-04-02T06:27:11.966Z,88.38
2023-04-02T06:29:38.282Z,87.81
2023-04-02T06:32:04.625Z,87.51
2023-04-02T06:34:30.871Z,86.86
2023-04-02T06:36:57.144Z,87.38
2023-04-02T06:39:23.481Z,87.42
2023-04-02T06:41:49.729Z,87.49
2023-04-02T06:44:15.975Z,87.51
2023-04-02T06:46:42.262Z,87.49
2023-04-02T06:49:08.497Z,87.78
2023-04-02T06:51:34.726Z,87.41
2023-04-02T06:54:01.018Z,84.74
2023-04-02T06:56:27.239Z,83.15
2023-04-02T06:58:53.462Z,82.43
2023-04-02T07:01:19.844Z,83.27
2023-04-02T07:03:46.145Z,81.45
2023-04-02T07:06:12.399Z,86.25
2023-04-02T07:08:38.622Z,88.85
2023-04-02T07:11:04.893Z,87.80
2023-04-02T07:13:31.124Z,84.11
2023-04-02T07:15:57.367Z,85.97
2023-04-02T07:18:24.096Z,82.24
2023-04-02T07:20:52.165Z,82.34
2023-04-02T07:23:18.528Z,80.69
2023-04-02T07:25:44.838Z,80.03
2023-04-02T07:28:11.109Z,79.94
2023-04-02T07:30:37.355Z,76.98
2023-04-02T07:33:03.643Z,74.59
2023-04-02T07:35:29.927Z,72.82
2023-04-02T07:37:56.221Z,72.18
2023-04-02T07:40:22.455Z,73.17
2023-04-02T07:42:48.760Z,70.25
2023-04-02T07:45:15.037Z,71.05
2023-04-02T07:47:41.345Z,71.14
2023-04-02T07:50:07.628Z,72.17
2023-04-02T07:52:33.881Z,71.36
2023-04-02T07:55:00.339Z,72.83
2023-04-02T07:57:26.630Z,71.95
2023-04-02T07:59:52.902Z,71.52
2023-04-02T08:02:19.186Z,69.23
2023-04-02T08:04:45.485Z,71.12
2023-04-02T08:07:11.704Z,71.55
2023-04-02T08:09:37.965Z,71.87
2023-04-02T08:12:04.217Z,69.73
2023-04-02T08:14:30.469Z,69.28
2023-04-02T08:16:56.825Z,67.52
2023-04-02T08:19:23.135Z,65.10
2023-04-02T08:21:49.368Z,66.37
2023-04-02T08:24:15.650Z,65.88
2023-04-02T08:26:43.380Z,68.46
2023-04-02T08:29:10.771Z,68.35
2023-04-02T08:31:37.002Z,66.30
2023-04-02T08:34:03.253Z,65.46
2023-04-02T08:36:29.528Z,67.24
2023-04-02T08:38:55.791Z,63.88
2023-04-02T08:41:22.010Z,64.45
2023-04-02T08:43:48.234Z,66.90
2023-04-02T08:46:14.492Z,66.32
2023-04-02T08:48:42.701Z,67.56
2023-04-02T08:51:09.040Z,67.79
2023-04-02T08:53:35.254Z,67.33
2023-04-02T08:56:01.504Z,65.76
2023-04-02T08:58:27.741Z,66.54
2023-04-02T09:00:54.025Z,63.69
2023-04-02T09:03:20.285Z,64.67
2023-04-02T09:05:46.548Z,63.03
2023-04-02T09:08:12.832Z,62.53
2023-04-02T09:10:39.131Z,63.26
2023-04-02T09:13:05.372Z,62.67
2023-04-02T09:15:31.613Z,63.24
2023-04-02T09:17:59.556Z,62.01
2023-04-02T09:20:25.976Z,61.10
2023-04-02T09:22:52.225Z,61.76
2023-04-02T09:25:18.461Z,61.31
2023-04-02T09:27:44.709Z,61.68
2023-04-02T09:30:10.943Z,58.46
2023-04-02T09:32:37.273Z,57.68
2023-04-02T09:35:09.588Z,57.56
2023-04-02T09:37:41.481Z,55.10
2023-04-02T09:40:07.715Z,56.56
2023-04-02T09:42:33.965Z,56.85
2023-04-02T09:45:00.225Z,56.73
2023-04-02T09:47:26.520Z,56.17
2023-04-02T09:49:52.826Z,52.60
2023-04-02T09:52:19.098Z,54.11
2023-04-02T09:54:45.368Z,53.96
2023-04-02T09:57:11.623Z,54.26
2023-04-02T09:59:37.879Z,51.08
2023-04-02T10:02:04.122Z,50.57
2023-04-02T10:04:30.368Z,52.59
2023-04-02T10:06:56.660Z,53.00
2023-04-02T10:09:22.902Z,54.21
2023-04-02T10:11:49.177Z,55.12
2023-04-02T10:14:15.411Z,56.29
2023-04-02T10:16:41.706Z,56.03
2023-04-02T10:19:08.021Z,56.73
2023-04-02T10:21:34.296Z,54.36
2023-04-02T10:24:00.530Z,52.74
2023-04-02T10:26:26.752Z,53.71
2023-04-02T10:28:53.044Z,48.17
2023-04-02T10:31:19.509Z,48.74
2023-04-02T10:33:45.758Z,49.75
2023-04-02T10:36:12.059Z,48.69
2023-04-02T10:38:38.339Z,48.13
2023-04-02T10:41:04.577Z,47.42
2023-04-02T10:43:30.824Z,46.13
2023-04-02T10:45:57.113Z,46.04
2023-04-02T10:48:23.375Z,46.12
2023-04-02T10:50:49.676Z,47.85
2023-04-02T10:53:15.933Z,47.79
2023-04-02T10:55:42.171Z,46.37
2023-04-02T10:58:08.415Z,45.39
2023-04-02T11:00:34.656Z,45.72
2023-04-02T11:03:00.997Z,44.51
2023-04-02T11:05:27.308Z,45.19
2023-04-02T11:07:53.735Z,45.35
2023-04-02T11:10:19.980Z,45.57
2023-04-02T11:12:46.292Z,43.37
2023-04-02T11:15:12.528Z,42.99
2023-04-02T11:17:38.794Z,41.34
2023-04-02T11:20:05.160Z,41.84
2023-04-02T11:22:33.023Z,40.58
2023-04-02T11:24:59.244Z,42.40
2023-04-02T11:27:25.505Z,40.84
2023-04-02T11:29:51.762Z,39.80
2023-04-02T11:32:18.004Z,41.05
2023-04-02T11:34:44.248Z,41.08
2023-04-02T11:37:10.472Z,40.99
2023-04-02T11:39:36.723Z,42.11
2023-04-02T11:42:05.685Z,41.17
2023-04-02T11:44:31.899Z,41.80
2023-04-02T11:46:58.216Z,42.30
2023-04-02T11:49:24.456Z,41.61
2023-04-02T11:51:56.378Z,43.48
2023-04-02T11:54:28.514Z,43.96
2023-04-02T11:56:54.789Z,42.84
2023-04-02T11:59:21.071Z,41.13
2023-04-02T12:01:47.323Z,42.39
2023-04-02T12:04:13.594Z,42.41
2023-04-02T12:06:39.923Z,41.28
2023-04-02T12:09:06.230Z,41.70
2023-04-02T12:11:32.467Z,42.83
2023-04-02T12:13:58.762Z,45.14
2023-04-02T12:16:25.067Z,45.89
2023-04-02T12:18:51.414Z,44.57
2023-04-02T12:21:17.660Z,44.42
2023-04-02T12:23:43.892Z,45.11
2023-04-02T12:26:10.132Z,44.78
2023-04-02T12:28:36.352Z,45.01
2023-04-02T12:31:02.660Z,46.65
2023-04-02T12:33:28.934Z,44.43
2023-04-02T12:35:55.214Z,45.74
2023-04-02T12:38:21.461Z,48.65
2023-04-02T12:40:47.696Z,46.55
2023-04-02T12:43:13.965Z,46.50
2023-04-02T12:45:40.225Z,46.41
2023-04-02T12:48:06.480Z,45.11
2023-04-02T12:50:32.756Z,45.07
2023-04-02T12:52:59.080Z,43.77
2023-04-02T12:55:25.349Z,43.78
2023-04-02T12:57:51.644Z,42.39
2023-04-02T13:00:17.915Z,41.83
2023-04-02T13:02:44.147Z,43.00
2023-04-02T13:05:10.510Z,42.77
2023-04-02T13:07:36.737Z,42.98
2023-04-02T13:10:03.103Z,41.77
2023-04-02T13:12:29.331Z,42.74
2023-04-02T13:14:55.565Z,41.27
2023-04-02T13:17:21.876Z,41.40
2023-04-02T13:19:48.171Z,40.98
2023-04-02T13:22:14.395Z,41.02
2023-04-02T13:24:40.645Z,41.49
2023-04-02T13:27:06.910Z,41.46
2023-04-02T13:29:33.162Z,41.04
2023-04-02T13:31:59.432Z,40.89
2023-04-02T13:34:25.668Z,41.39
2023-04-02T13:36:51.916Z,39.65
2023-04-02T13:39:18.166Z,40.07
2023-04-02T13:41:44.447Z,41.29
2023-04-02T13:44:10.717Z,43.00
2023-04-02T13:46:36.964Z,41.61
2023-04-02T13:49:03.264Z,41.26
2023-04-02T13:51:29.759Z,41.89
2023-04-02T13:53:56.083Z,41.72
2023-04-02T13:56:22.327Z,42.34
2023-04-02T13:58:48.557Z,42.09
2023-04-02T14:01:14.854Z,42.00
2023-04-02T14:03:41.278Z,39.49
2023-04-02T14:06:07.523Z,40.56
2023-04-02T14:08:33.756Z,41.56
2023-04-02T14:10:59.981Z,40.48
2023-04-02T14:13:26.213Z,41.63
2023-04-02T14:15:52.493Z,42.29
2023-04-02T14:18:18.731Z,42.00
2023-04-02T14:20:44.975Z,41.14
2023-04-02T14:23:11.188Z,42.48
2023-04-02T14:25:37.614Z,41.06
2023-04-02T14:28:04.055Z,42.17
2023-04-02T14:30:32.791Z,41.80
2023-04-02T14:32:59.114Z,42.92
2023-04-02T14:35:25.530Z,42.86
2023-04-02T14:37:51.865Z,41.33
2023-04-02T14:40:18.113Z,44.93
2023-04-02T14:42:44.418Z,49.27
2023-04-02T14:45:10.681Z,51.26
2023-04-02T14:47:38.138Z,50.94
2023-04-02T14:50:04.449Z,51.06
2023-04-02T14:52:30.684Z,50.74
2023-04-02T14:54:56.946Z,50.10
2023-04-02T14:57:23.212Z,51.77
2023-04-02T14:59:49.452Z,52.75
2023-04-02T15:02:15.682Z,51.91
2023-04-02T15:04:41.938Z,51.74
2023-04-02T15:07:08.168Z,52.15
2023-04-02T15:09:34.476Z,53.91
2023-04-02T15:12:00.720Z,51.70
2023-04-02T15:14:26.956Z,51.83
2023-04-02T15:16:53.245Z,51.22
2023-04-02T15:19:19.484Z,51.85
2023-04-02T15:21:55.791Z,51.34
2023-04-02T15:24:23.295Z,54.48
2023-04-02T15:26:49.539Z,53.61
2023-04-02T15:29:27.732Z,53.17
2023-04-02T15:31:54.561Z,53.86
2023-04-02T15:34:20.974Z,50.61
2023-04-02T15:36:47.224Z,51.16
2023-04-02T15:39:13.469Z,50.81
2023-04-02T15:41:39.700Z,49.05
2023-04-02T15:44:05.916Z,48.48
2023-04-02T15:46:32.167Z,46.88
2023-04-02T15:48:58.435Z,47.47
2023-04-02T15:51:24.720Z,47.69
2023-04-02T15:53:50.946Z,46.01
2023-04-02T15:56:17.171Z,47.66
2023-04-02T15:58:43.444Z,48.85
2023-04-02T16:01:09.770Z,48.66
2023-04-02T16:03:36.196Z,47.40
2023-04-02T16:06:02.590Z,50.20
2023-04-02T16:08:28.833Z,48.80
2023-04-02T16:10:56.626Z,48.74
2023-04-02T16:13:22.862Z,49.26
2023-04-02T16:15:49.077Z,49.46
2023-04-02T16:18:15.430Z,46.73
2023-04-02T16:20:41.689Z,47.23
2023-04-02T16:23:07.940Z,46.29
2023-04-02T16:25:34.190Z,46.29
2023-04-02T16:28:00.434Z,45.85
2023-04-02T16:30:26.684Z,50.27
2023-04-02T16:32:53.057Z,58.38
2023-04-02T16:35:41.085Z,61.45
2023-04-02T16:38:05.555Z,65.40
2023-04-02T16:40:31.780Z,69.09
2023-04-02T16:42:58.019Z,71.08
2023-04-02T16:45:24.588Z,74.66
2023-04-02T16:47:50.879Z,75.47
2023-04-02T16:50:17.214Z,75.63
2023-04-02T16:52:43.438Z,76.98
2023-04-02T16:55:11.165Z,77.84
2023-04-02T16:57:37.834Z,81.35
2023-04-02T17:00:04.062Z,81.05
2023-04-02T17:02:30.475Z,79.71
2023-04-02T17:04:56.831Z,77.23
2023-04-02T17:07:23.068Z,75.16
2023-04-02T17:09:49.297Z,73.69
2023-04-02T17:12:15.544Z,73.01
2023-04-02T17:14:41.799Z,71.93
2023-04-02T17:17:08.036Z,70.96
2023-04-02T17:19:34.303Z,70.75
2023-04-02T17:22:00.567Z,70.81
2023-04-02T17:24:26.858Z,70.33
2023-04-02T17:26:53.149Z,69.26
2023-04-02T17:29:19.427Z,70.22
2023-04-02T17:31:45.765Z,69.55
2023-04-02T17:34:12.154Z,68.10
2023-04-02T17:36:38.394Z,68.26
2023-04-02T17:39:04.622Z,68.02
2023-04-02T17:41:30.903Z,68.43
2023-04-02T17:43:57.140Z,68.54
2023-04-02T17:46:23.410Z,69.32
2023-04-02T17:48:49.691Z,69.02
2023-04-02T17:51:15.926Z,68.76
2023-04-02T17:53:42.171Z,67.68
2023-04-02T17:56:08.409Z,66.88
2023-04-02T17:58:34.619Z,67.87
2023-04-02T18:01:00.872Z,70.62
2023-04-02T18:03:28.751Z,72.43
2023-04-02T18:05:56.330Z,74.58
2023-04-02T18:08:22.624Z,74.64
2023-04-02T18:10:48.947Z,75.13
2023-04-02T18:13:15.184Z,74.38
2023-04-02T18:15:41.412Z,73.88
2023-04-02T18:18:07.661Z,74.40
2023-04-02T18:20:34.083Z,74.56
2023-04-02T18:23:00.414Z,74.43
2023-04-02T18:25:26.663Z,74.78
2023-04-02T18:27:52.917Z,74.92
2023-04-02T18:30:19.223Z,74.62
2023-04-02T18:32:45.556Z,74.40
2023-04-02T18:35:11.825Z,74.95
2023-04-02T18:37:38.094Z,75.03
2023-04-02T18:40:04.342Z,74.50
2023-04-02T18:42:30.577Z,74.11
2023-04-02T18:44:56.825Z,72.35
2023-04-02T18:47:23.089Z,71.50
2023-04-02T18:49:49.352Z,71.60
2023-04-02T18:52:15.783Z,72.30
2023-04-02T18:54:42.119Z,72.19
2023-04-02T18:57:08.421Z,72.07
2023-04-02T18:59:34.729Z,72.13
2023-04-02T19:02:00.960Z,71.39
2023-04-02T19:04:27.235Z,71.08
2023-04-02T19:06:53.444Z,71.29
2023-04-02T19:09:19.734Z,71.33
2023-04-02T19:11:45.978Z,75.29
2023-04-02T19:14:12.212Z,75.03
2023-04-02T19:16:38.496Z,75.36
2023-04-02T19:19:04.752Z,75.22
2023-04-02T19:21:30.995Z,75.44
2023-04-02T19:23:57.227Z,75.05
2023-04-02T19:26:23.486Z,76.11
2023-04-02T19:28:49.711Z,78.23
2023-04-02T19:31:15.983Z,79.28
2023-04-02T19:33:42.216Z,79.89
2023-04-02T19:36:08.490Z,79.69
2023-04-02T19:38:34.751Z,79.79
2023-04-02T19:41:00.988Z,79.63
2023-04-02T19:43:27.217Z,80.39
2023-04-02T19:45:53.436Z,81.36
2023-04-02T19:48:19.648Z,84.84
2023-04-02T19:50:45.848Z,84.82
2023-04-02T19:53:12.097Z,84.36
2023-04-02T19:55:38.559Z,83.56
2023-04-02T19:58:18.791Z,83.35
2023-04-02T20:00:46.021Z,82.98
2023-04-02T20:03:12.291Z,82.42
2023-04-02T20:05:38.819Z,82.19
2023-04-02T20:08:05.268Z,82.12
2023-04-02T20:10:31.516Z,81.74
2023-04-02T20:12:57.737Z,81.79
2023-04-02T20:15:24.024Z,80.97
2023-04-02T20:17:50.287Z,80.47
2023-04-02T20:20:16.529Z,79.96
2023-04-02T20:22:42.779Z,79.98
2023-04-02T20:25:09.004Z,80.11
2023-04-02T20:27:35.260Z,79.70
2023-04-02T20:30:01.490Z,79.09
2023-04-02T20:32:27.820Z,79.09
2023-04-02T20:34:54.068Z,79.12
2023-04-02T20:37:20.303Z,79.14
2023-04-02T20:39:46.539Z,79.53
2023-04-02T20:42:12.795Z,79.77
2023-04-02T20:44:39.042Z,79.58
2023-04-02T20:47:05.264Z,79.85
2023-04-02T20:49:31.483Z,79.79
2023-04-02T20:51:57.720Z,79.93
2023-04-02T20:54:23.937Z,79.69
2023-04-02T20:56:50.268Z,80.07
2023-04-02T20:59:16.638Z,79.65
2023-04-02T21:01:42.881Z,79.77
2023-04-02T21:04:09.136Z,80.09
2023-04-02T21:06:35.377Z,80.07
2023-04-02T21:09:01.615Z,80.37
2023-04-02T21:11:27.845Z,80.17
2023-04-02T21:13:54.068Z,79.79
2023-04-02T21:16:20.361Z,79.74
2023-04-02T21:18:46.655Z,79.46
2023-04-02T21:21:12.914Z,79.31
2023-04-02T21:23:39.141Z,78.50
2023-04-02T21:26:05.361Z,78.05
2023-04-02T21:28:31.596Z,77.86
2023-04-02T21:30:57.813Z,77.74
2023-04-02T21:33:24.073Z,78.12
2023-04-02T21:35:50.318Z,83.28
2023-04-02T21:38:16.564Z,83.69
2023-04-02T21:40:42.793Z,84.11
2023-04-02T21:43:09.015Z,84.13
2023-04-02T21:45:35.484Z,84.34
2023-04-02T21:48:01.882Z,83.55
2023-04-02T21:50:28.159Z,82.83
2023-04-02T21:52:54.397Z,82.18
2023-04-02T21:55:20.667Z,81.49
2023-04-02T21:57:46.956Z,82.72
2023-04-02T22:00:13.216Z,83.21
2023-04-02T22:02:39.554Z,83.26
2023-04-02T22:05:05.838Z,83.98
2023-04-02T22:07:32.061Z,84.00
2023-04-02T22:09:58.311Z,84.42
2023-04-02T22:12:24.552Z,84.47
2023-04-02T22:14:50.791Z,85.91
2023-04-02T22:17:17.023Z,86.25
2023-04-02T22:19:43.247Z,86.16
2023-04-02T22:22:09.493Z,85.51
2023-04-02T22:24:35.782Z,85.52
2023-04-02T22:27:02.039Z,86.56
2023-04-02T22:29:28.276Z,86.09
2023-04-02T22:31:54.504Z,86.65
2023-04-02T22:34:20.743Z,86.61
2023-04-02T22:36:46.954Z,86.99
2023-04-02T22:39:13.195Z,86.66
2023-04-02T22:41:39.441Z,86.95
2023-04-02T22:44:05.704Z,87.81
2023-04-02T22:46:32.030Z,87.77
2023-04-02T22:48:58.300Z,87.95
2023-04-02T22:51:24.577Z,87.88
2023-04-02T22:53:50.799Z,88.99
2023-04-02T22:56:17.035Z,89.02
2023-04-02T22:58:43.279Z,88.41
2023-04-02T23:01:09.576Z,86.85
2023-04-02T23:03:35.853Z,85.90
2023-04-02T23:06:02.118Z,85.18
2023-04-02T23:08:28.422Z,84.87
2023-04-02T23:10:54.651Z,84.35
2023-04-02T23:13:20.895Z,84.20
2023-04-02T23:15:47.148Z,84.16
2023-04-02T23:18:13.374Z,84.15
2023-04-02T23:20:39.605Z,83.88
2023-04-02T23:23:05.831Z,83.73
2023-04-02T23:25:32.099Z,83.86
2023-04-02T23:27:58.334Z,83.44
2023-04-02T23:30:24.548Z,83.92
2023-04-02T23:32:50.840Z,84.79
2023-04-02T23:35:17.080Z,86.71
2023-04-02T23:37:43.313Z,87.12
2023-04-02T23:40:09.570Z,86.91
2023-04-02T23:42:35.822Z,86.54
2023-04-02T23:45:02.078Z,86.28
2023-04-02T23:47:28.341Z,86.27
2023-04-02T23:49:54.589Z,85.97
2023-04-02T23:52:20.814Z,85.12
2023-04-02T23:54:47.064Z,84.71
2023-04-02T23:57:13.363Z,84.66
2023-04-02T23:59:39.713Z,84.56
